sensor_id;sensor_type;location;lat;lon;timestamp;temperature;humidity
16901;DHT22;8567;52.540;6.434;2022-07-11T00:02:02;24.40;50.60
16901;DHT22;8567;52.540;6.434;2022-07-11T00:04:29;25.00;49.40
16901;DHT22;8567;52.540;6.434;2022-07-11T00:06:56;25.50;48.00
16901;DHT22;8567;52.540;6.434;2022-07-11T00:09:23;25.40;48.00
16901;DHT22;8567;52.540;6.434;2022-07-11T00:11:50;25.20;48.40
16901;DHT22;8567;52.540;6.434;2022-07-11T00:14:18;25.00;48.90
16901;DHT22;8567;52.540;6.434;2022-07-11T00:16:45;24.80;49.30
16901;DHT22;8567;52.540;6.434;2022-07-11T00:19:14;24.60;49.60
16901;DHT22;8567;52.540;6.434;2022-07-11T00:21:41;24.50;49.90
16901;DHT22;8567;52.540;6.434;2022-07-11T00:24:08;24.40;50.10
16901;DHT22;8567;52.540;6.434;2022-07-11T00:26:35;24.40;50.10
16901;DHT22;8567;52.540;6.434;2022-07-11T00:29:02;24.40;50.30
16901;DHT22;8567;52.540;6.434;2022-07-11T00:31:29;24.30;50.40
16901;DHT22;8567;52.540;6.434;2022-07-11T00:33:56;24.30;50.40
16901;DHT22;8567;52.540;6.434;2022-07-11T00:36:25;24.30;50.50
16901;DHT22;8567;52.540;6.434;2022-07-11T00:38:52;24.30;50.60
16901;DHT22;8567;52.540;6.434;2022-07-11T00:41:19;24.30;50.60
16901;DHT22;8567;52.540;6.434;2022-07-11T00:43:51;24.20;50.60
16901;DHT22;8567;52.540;6.434;2022-07-11T00:46:19;24.30;50.70
16901;DHT22;8567;52.540;6.434;2022-07-11T00:48:47;24.30;50.60
16901;DHT22;8567;52.540;6.434;2022-07-11T00:51:14;24.20;50.70
16901;DHT22;8567;52.540;6.434;2022-07-11T00:53:43;24.20;50.70
16901;DHT22;8567;52.540;6.434;2022-07-11T00:56:10;24.20;50.80
16901;DHT22;8567;52.540;6.434;2022-07-11T00:58:37;24.20;50.70
16901;DHT22;8567;52.540;6.434;2022-07-11T01:01:04;24.20;50.80
16901;DHT22;8567;52.540;6.434;2022-07-11T01:03:34;24.20;50.90
16901;DHT22;8567;52.540;6.434;2022-07-11T01:06:05;24.80;49.80
16901;DHT22;8567;52.540;6.434;2022-07-11T01:08:33;25.20;48.80
16901;DHT22;8567;52.540;6.434;2022-07-11T01:11:03;25.20;48.70
16901;DHT22;8567;52.540;6.434;2022-07-11T01:13:30;25.00;49.00
16901;DHT22;8567;52.540;6.434;2022-07-11T01:16:07;24.80;49.40
16901;DHT22;8567;52.540;6.434;2022-07-11T01:18:34;24.60;49.80
16901;DHT22;8567;52.540;6.434;2022-07-11T01:21:02;24.50;50.20
16901;DHT22;8567;52.540;6.434;2022-07-11T01:23:32;24.40;50.40
16901;DHT22;8567;52.540;6.434;2022-07-11T01:25:59;24.40;50.60
16901;DHT22;8567;52.540;6.434;2022-07-11T01:28:26;24.30;50.70
16901;DHT22;8567;52.540;6.434;2022-07-11T01:30:53;24.30;50.90
16901;DHT22;8567;52.540;6.434;2022-07-11T01:33:20;24.20;50.90
16901;DHT22;8567;52.540;6.434;2022-07-11T01:35:46;24.20;51.00
16901;DHT22;8567;52.540;6.434;2022-07-11T01:38:13;24.20;51.10
16901;DHT22;8567;52.540;6.434;2022-07-11T01:40:41;24.20;51.10
16901;DHT22;8567;52.540;6.434;2022-07-11T01:43:08;24.20;51.10
16901;DHT22;8567;52.540;6.434;2022-07-11T01:45:35;24.10;51.20
16901;DHT22;8567;52.540;6.434;2022-07-11T01:48:01;24.10;51.30
16901;DHT22;8567;52.540;6.434;2022-07-11T01:50:28;24.10;51.30
16901;DHT22;8567;52.540;6.434;2022-07-11T01:52:55;24.10;51.20
16901;DHT22;8567;52.540;6.434;2022-07-11T01:55:22;24.10;51.20
16901;DHT22;8567;52.540;6.434;2022-07-11T01:57:50;24.10;51.20
16901;DHT22;8567;52.540;6.434;2022-07-11T02:00:16;24.10;51.30
16901;DHT22;8567;52.540;6.434;2022-07-11T02:02:43;24.10;51.30
16901;DHT22;8567;52.540;6.434;2022-07-11T02:05:10;24.30;51.20
16901;DHT22;8567;52.540;6.434;2022-07-11T02:07:37;24.90;49.80
16901;DHT22;8567;52.540;6.434;2022-07-11T02:10:21;25.10;49.00
16901;DHT22;8567;52.540;6.434;2022-07-11T02:12:49;25.00;49.10
16901;DHT22;8567;52.540;6.434;2022-07-11T02:15:16;24.80;49.50
16901;DHT22;8567;52.540;6.434;2022-07-11T02:17:43;24.70;49.90
16901;DHT22;8567;52.540;6.434;2022-07-11T02:20:10;24.50;50.20
16901;DHT22;8567;52.540;6.434;2022-07-11T02:22:37;24.40;50.50
16901;DHT22;8567;52.540;6.434;2022-07-11T02:25:04;24.30;50.70
16901;DHT22;8567;52.540;6.434;2022-07-11T02:27:31;24.20;50.90
16901;DHT22;8567;52.540;6.434;2022-07-11T02:29:59;24.20;51.00
16901;DHT22;8567;52.540;6.434;2022-07-11T02:32:26;24.10;51.10
16901;DHT22;8567;52.540;6.434;2022-07-11T02:34:53;24.10;51.10
16901;DHT22;8567;52.540;6.434;2022-07-11T02:37:20;24.10;51.20
16901;DHT22;8567;52.540;6.434;2022-07-11T02:39:47;24.10;51.20
16901;DHT22;8567;52.540;6.434;2022-07-11T02:42:13;24.10;51.20
16901;DHT22;8567;52.540;6.434;2022-07-11T02:44:40;24.10;51.20
16901;DHT22;8567;52.540;6.434;2022-07-11T02:47:08;24.10;51.20
16901;DHT22;8567;52.540;6.434;2022-07-11T02:49:35;24.00;51.20
16901;DHT22;8567;52.540;6.434;2022-07-11T02:52:02;24.00;51.20
16901;DHT22;8567;52.540;6.434;2022-07-11T02:54:29;24.00;51.20
16901;DHT22;8567;52.540;6.434;2022-07-11T02:56:56;24.00;51.20
16901;DHT22;8567;52.540;6.434;2022-07-11T02:59:23;24.00;51.20
16901;DHT22;8567;52.540;6.434;2022-07-11T03:01:50;24.00;51.20
16901;DHT22;8567;52.540;6.434;2022-07-11T03:04:19;24.00;51.20
16901;DHT22;8567;52.540;6.434;2022-07-11T03:06:46;24.20;51.10
16901;DHT22;8567;52.540;6.434;2022-07-11T03:09:12;24.80;49.60
16901;DHT22;8567;52.540;6.434;2022-07-11T03:11:39;25.00;49.00
16901;DHT22;8567;52.540;6.434;2022-07-11T03:14:06;24.90;49.20
16901;DHT22;8567;52.540;6.434;2022-07-11T03:16:33;24.70;49.50
16901;DHT22;8567;52.540;6.434;2022-07-11T03:19:00;24.50;49.90
16901;DHT22;8567;52.540;6.434;2022-07-11T03:21:28;24.40;50.20
16901;DHT22;8567;52.540;6.434;2022-07-11T03:23:55;24.30;50.50
16901;DHT22;8567;52.540;6.434;2022-07-11T03:26:22;24.20;50.60
16901;DHT22;8567;52.540;6.434;2022-07-11T03:28:48;24.10;50.80
16901;DHT22;8567;52.540;6.434;2022-07-11T03:31:15;24.10;50.90
16901;DHT22;8567;52.540;6.434;2022-07-11T03:33:42;24.10;51.00
16901;DHT22;8567;52.540;6.434;2022-07-11T03:36:08;24.00;51.00
16901;DHT22;8567;52.540;6.434;2022-07-11T03:38:37;24.00;51.10
16901;DHT22;8567;52.540;6.434;2022-07-11T03:41:04;24.00;51.10
16901;DHT22;8567;52.540;6.434;2022-07-11T03:43:31;24.00;51.10
16901;DHT22;8567;52.540;6.434;2022-07-11T03:45:59;24.00;51.20
16901;DHT22;8567;52.540;6.434;2022-07-11T03:48:26;24.00;51.10
16901;DHT22;8567;52.540;6.434;2022-07-11T03:50:53;24.00;51.20
16901;DHT22;8567;52.540;6.434;2022-07-11T03:53:19;24.00;51.20
16901;DHT22;8567;52.540;6.434;2022-07-11T03:55:47;24.00;51.20
16901;DHT22;8567;52.540;6.434;2022-07-11T03:58:14;24.00;51.20
16901;DHT22;8567;52.540;6.434;2022-07-11T04:00:41;23.90;51.30
16901;DHT22;8567;52.540;6.434;2022-07-11T04:03:08;23.90;51.30
16901;DHT22;8567;52.540;6.434;2022-07-11T04:05:36;23.90;51.40
16901;DHT22;8567;52.540;6.434;2022-07-11T04:08:03;24.30;50.70
16901;DHT22;8567;52.540;6.434;2022-07-11T04:10:30;24.80;49.50
16901;DHT22;8567;52.540;6.434;2022-07-11T04:12:58;24.90;49.20
16901;DHT22;8567;52.540;6.434;2022-07-11T04:15:25;24.70;49.50
16901;DHT22;8567;52.540;6.434;2022-07-11T04:17:52;24.50;49.80
16901;DHT22;8567;52.540;6.434;2022-07-11T04:20:19;24.40;50.20
16901;DHT22;8567;52.540;6.434;2022-07-11T04:22:46;24.30;50.50
16901;DHT22;8567;52.540;6.434;2022-07-11T04:25:12;24.20;50.70
16901;DHT22;8567;52.540;6.434;2022-07-11T04:27:39;24.10;50.90
16901;DHT22;8567;52.540;6.434;2022-07-11T04:30:08;24.10;51.00
16901;DHT22;8567;52.540;6.434;2022-07-11T04:32:35;24.00;51.20
16901;DHT22;8567;52.540;6.434;2022-07-11T04:35:02;24.00;51.30
16901;DHT22;8567;52.540;6.434;2022-07-11T04:37:29;24.00;51.40
16901;DHT22;8567;52.540;6.434;2022-07-11T04:39:56;24.00;51.50
16901;DHT22;8567;52.540;6.434;2022-07-11T04:42:22;23.90;51.60
16901;DHT22;8567;52.540;6.434;2022-07-11T04:44:49;23.90;51.60
16901;DHT22;8567;52.540;6.434;2022-07-11T04:47:18;23.90;51.60
16901;DHT22;8567;52.540;6.434;2022-07-11T04:49:45;23.90;51.70
16901;DHT22;8567;52.540;6.434;2022-07-11T04:52:12;23.90;51.70
16901;DHT22;8567;52.540;6.434;2022-07-11T04:54:39;23.90;51.80
16901;DHT22;8567;52.540;6.434;2022-07-11T04:57:06;23.90;51.80
16901;DHT22;8567;52.540;6.434;2022-07-11T04:59:33;23.90;51.90
16901;DHT22;8567;52.540;6.434;2022-07-11T05:01:59;23.90;51.90
16901;DHT22;8567;52.540;6.434;2022-07-11T05:04:27;23.90;51.90
16901;DHT22;8567;52.540;6.434;2022-07-11T05:06:54;24.00;52.10
16901;DHT22;8567;52.540;6.434;2022-07-11T05:09:21;24.70;50.50
16901;DHT22;8567;52.540;6.434;2022-07-11T05:11:48;25.00;49.60
16901;DHT22;8567;52.540;6.434;2022-07-11T05:14:14;24.90;49.80
16901;DHT22;8567;52.540;6.434;2022-07-11T05:16:41;24.70;50.10
16901;DHT22;8567;52.540;6.434;2022-07-11T05:19:08;24.60;50.60
16901;DHT22;8567;52.540;6.434;2022-07-11T05:21:36;24.40;51.00
16901;DHT22;8567;52.540;6.434;2022-07-11T05:24:03;24.30;51.40
16901;DHT22;8567;52.540;6.434;2022-07-11T05:26:30;24.20;51.70
16901;DHT22;8567;52.540;6.434;2022-07-11T05:28:57;24.10;51.80
16901;DHT22;8567;52.540;6.434;2022-07-11T05:31:24;24.00;52.00
16901;DHT22;8567;52.540;6.434;2022-07-11T05:33:50;24.00;52.10
16901;DHT22;8567;52.540;6.434;2022-07-11T05:36:17;24.00;52.20
16901;DHT22;8567;52.540;6.434;2022-07-11T05:38:45;24.00;52.30
16901;DHT22;8567;52.540;6.434;2022-07-11T05:41:12;24.00;52.40
16901;DHT22;8567;52.540;6.434;2022-07-11T05:43:39;23.90;52.40
16901;DHT22;8567;52.540;6.434;2022-07-11T05:46:06;23.90;52.40
16901;DHT22;8567;52.540;6.434;2022-07-11T05:48:32;24.00;52.50
16901;DHT22;8567;52.540;6.434;2022-07-11T05:50:59;24.00;52.60
16901;DHT22;8567;52.540;6.434;2022-07-11T05:53:26;23.90;52.70
16901;DHT22;8567;52.540;6.434;2022-07-11T05:55:54;23.90;52.70
16901;DHT22;8567;52.540;6.434;2022-07-11T05:58:21;24.00;52.70
16901;DHT22;8567;52.540;6.434;2022-07-11T06:00:47;24.00;52.70
16901;DHT22;8567;52.540;6.434;2022-07-11T06:03:14;24.00;52.70
16901;DHT22;8567;52.540;6.434;2022-07-11T06:05:41;24.00;52.80
16901;DHT22;8567;52.540;6.434;2022-07-11T06:08:08;24.30;52.20
16901;DHT22;8567;52.540;6.434;2022-07-11T06:10:53;24.70;51.30
16901;DHT22;8567;52.540;6.434;2022-07-11T06:13:20;24.80;51.00
16901;DHT22;8567;52.540;6.434;2022-07-11T06:15:46;24.60;51.30
16901;DHT22;8567;52.540;6.434;2022-07-11T06:18:13;24.50;51.70
16901;DHT22;8567;52.540;6.434;2022-07-11T06:20:40;24.40;52.10
16901;DHT22;8567;52.540;6.434;2022-07-11T06:23:07;24.20;52.50
16901;DHT22;8567;52.540;6.434;2022-07-11T06:25:33;24.10;52.80
16901;DHT22;8567;52.540;6.434;2022-07-11T06:28:02;24.00;53.10
16901;DHT22;8567;52.540;6.434;2022-07-11T06:30:29;24.00;53.30
16901;DHT22;8567;52.540;6.434;2022-07-11T06:32:56;23.90;53.40
16901;DHT22;8567;52.540;6.434;2022-07-11T06:35:23;23.90;53.50
16901;DHT22;8567;52.540;6.434;2022-07-11T06:37:50;23.90;53.60
16901;DHT22;8567;52.540;6.434;2022-07-11T06:40:16;24.00;53.40
16901;DHT22;8567;52.540;6.434;2022-07-11T06:42:43;24.00;53.30
16901;DHT22;8567;52.540;6.434;2022-07-11T06:45:11;24.00;53.40
16901;DHT22;8567;52.540;6.434;2022-07-11T06:47:38;24.00;53.50
16901;DHT22;8567;52.540;6.434;2022-07-11T06:50:06;23.90;53.90
16901;DHT22;8567;52.540;6.434;2022-07-11T06:52:33;23.80;54.00
16901;DHT22;8567;52.540;6.434;2022-07-11T06:55:00;23.90;53.80
16901;DHT22;8567;52.540;6.434;2022-07-11T06:57:27;23.90;53.70
16901;DHT22;8567;52.540;6.434;2022-07-11T06:59:54;24.00;53.70
16901;DHT22;8567;52.540;6.434;2022-07-11T07:02:22;24.00;53.50
16901;DHT22;8567;52.540;6.434;2022-07-11T07:04:53;24.00;53.50
16901;DHT22;8567;52.540;6.434;2022-07-11T07:07:20;24.20;53.50
16901;DHT22;8567;52.540;6.434;2022-07-11T07:09:53;24.70;52.10
16901;DHT22;8567;52.540;6.434;2022-07-11T07:12:20;24.80;51.60
16901;DHT22;8567;52.540;6.434;2022-07-11T07:14:47;24.70;51.60
16901;DHT22;8567;52.540;6.434;2022-07-11T07:17:14;24.60;51.90
16901;DHT22;8567;52.540;6.434;2022-07-11T07:19:42;24.50;52.20
16901;DHT22;8567;52.540;6.434;2022-07-11T07:22:08;24.40;52.50
16901;DHT22;8567;52.540;6.434;2022-07-11T07:24:35;24.30;52.70
16901;DHT22;8567;52.540;6.434;2022-07-11T07:27:03;24.30;52.70
16901;DHT22;8567;52.540;6.434;2022-07-11T07:29:30;24.20;52.90
16901;DHT22;8567;52.540;6.434;2022-07-11T07:31:58;24.20;53.00
16901;DHT22;8567;52.540;6.434;2022-07-11T07:34:24;24.10;53.10
16901;DHT22;8567;52.540;6.434;2022-07-11T07:36:52;24.00;53.40
16901;DHT22;8567;52.540;6.434;2022-07-11T07:39:19;24.00;53.50
16901;DHT22;8567;52.540;6.434;2022-07-11T07:41:46;24.00;53.40
16901;DHT22;8567;52.540;6.434;2022-07-11T07:44:13;24.10;53.30
16901;DHT22;8567;52.540;6.434;2022-07-11T07:46:39;24.10;53.20
16901;DHT22;8567;52.540;6.434;2022-07-11T07:49:06;24.10;53.20
16901;DHT22;8567;52.540;6.434;2022-07-11T07:51:33;24.10;53.10
16901;DHT22;8567;52.540;6.434;2022-07-11T07:54:01;24.10;53.50
16901;DHT22;8567;52.540;6.434;2022-07-11T07:56:28;24.10;53.40
16901;DHT22;8567;52.540;6.434;2022-07-11T07:58:55;24.20;53.70
16901;DHT22;8567;52.540;6.434;2022-07-11T08:01:22;24.40;53.00
16901;DHT22;8567;52.540;6.434;2022-07-11T08:04:00;24.60;52.40
16901;DHT22;8567;52.540;6.434;2022-07-11T08:06:27;24.60;52.30
16901;DHT22;8567;52.540;6.434;2022-07-11T08:08:54;24.90;52.10
16901;DHT22;8567;52.540;6.434;2022-07-11T08:11:22;25.50;50.50
16901;DHT22;8567;52.540;6.434;2022-07-11T08:13:49;25.80;49.70
16901;DHT22;8567;52.540;6.434;2022-07-11T08:16:16;25.70;49.80
16901;DHT22;8567;52.540;6.434;2022-07-11T08:18:43;25.50;50.40
16901;DHT22;8567;52.540;6.434;2022-07-11T08:21:10;25.50;50.60
16901;DHT22;8567;52.540;6.434;2022-07-11T08:23:37;25.40;50.80
16901;DHT22;8567;52.540;6.434;2022-07-11T08:26:03;25.10;51.40
16901;DHT22;8567;52.540;6.434;2022-07-11T08:28:32;25.00;51.60
16901;DHT22;8567;52.540;6.434;2022-07-11T08:30:58;24.90;52.00
16901;DHT22;8567;52.540;6.434;2022-07-11T08:33:26;24.80;52.20
16901;DHT22;8567;52.540;6.434;2022-07-11T08:35:53;24.70;52.40
16901;DHT22;8567;52.540;6.434;2022-07-11T08:38:20;24.70;52.60
16901;DHT22;8567;52.540;6.434;2022-07-11T08:40:48;24.70;52.60
16901;DHT22;8567;52.540;6.434;2022-07-11T08:43:16;24.60;52.70
16901;DHT22;8567;52.540;6.434;2022-07-11T08:45:45;24.60;52.80
16901;DHT22;8567;52.540;6.434;2022-07-11T08:48:12;24.60;52.80
16901;DHT22;8567;52.540;6.434;2022-07-11T08:50:40;24.60;52.80
16901;DHT22;8567;52.540;6.434;2022-07-11T08:53:07;24.60;52.80
16901;DHT22;8567;52.540;6.434;2022-07-11T08:55:35;24.50;52.90
16901;DHT22;8567;52.540;6.434;2022-07-11T08:58:02;24.50;52.90
16901;DHT22;8567;52.540;6.434;2022-07-11T09:00:29;24.50;52.80
16901;DHT22;8567;52.540;6.434;2022-07-11T09:02:58;24.50;52.80
16901;DHT22;8567;52.540;6.434;2022-07-11T09:05:27;24.40;52.90
16901;DHT22;8567;52.540;6.434;2022-07-11T09:07:54;24.60;52.80
16901;DHT22;8567;52.540;6.434;2022-07-11T09:10:21;25.40;51.10
16901;DHT22;8567;52.540;6.434;2022-07-11T09:13:01;26.00;49.60
16901;DHT22;8567;52.540;6.434;2022-07-11T09:15:36;25.90;49.50
16901;DHT22;8567;52.540;6.434;2022-07-11T09:18:06;25.60;50.10
16901;DHT22;8567;52.540;6.434;2022-07-11T09:20:53;25.30;50.70
16901;DHT22;8567;52.540;6.434;2022-07-11T09:23:37;24.90;51.50
16901;DHT22;8567;52.540;6.434;2022-07-11T09:26:22;24.80;51.80
16901;DHT22;8567;52.540;6.434;2022-07-11T09:28:59;24.60;52.20
16901;DHT22;8567;52.540;6.434;2022-07-11T09:31:27;24.60;52.40
16901;DHT22;8567;52.540;6.434;2022-07-11T09:34:02;24.50;52.60
16901;DHT22;8567;52.540;6.434;2022-07-11T09:36:40;24.50;52.50
16901;DHT22;8567;52.540;6.434;2022-07-11T09:39:08;24.50;52.50
16901;DHT22;8567;52.540;6.434;2022-07-11T09:41:37;24.50;52.50
16901;DHT22;8567;52.540;6.434;2022-07-11T09:44:12;24.50;52.60
16901;DHT22;8567;52.540;6.434;2022-07-11T09:46:40;24.50;52.50
16901;DHT22;8567;52.540;6.434;2022-07-11T09:49:09;24.50;52.50
16901;DHT22;8567;52.540;6.434;2022-07-11T09:51:37;24.50;52.50
16901;DHT22;8567;52.540;6.434;2022-07-11T09:54:04;24.40;52.70
16901;DHT22;8567;52.540;6.434;2022-07-11T09:56:34;24.40;52.90
16901;DHT22;8567;52.540;6.434;2022-07-11T09:59:02;24.40;52.80
16901;DHT22;8567;52.540;6.434;2022-07-11T10:01:30;24.40;52.80
16901;DHT22;8567;52.540;6.434;2022-07-11T10:03:58;24.70;52.20
16901;DHT22;8567;52.540;6.434;2022-07-11T10:06:26;24.80;51.80
16901;DHT22;8567;52.540;6.434;2022-07-11T10:08:54;25.10;51.40
16901;DHT22;8567;52.540;6.434;2022-07-11T10:11:21;25.60;50.10
16901;DHT22;8567;52.540;6.434;2022-07-11T10:13:47;25.70;49.70
16901;DHT22;8567;52.540;6.434;2022-07-11T10:16:24;25.50;50.10
16901;DHT22;8567;52.540;6.434;2022-07-11T10:18:58;25.30;50.60
16901;DHT22;8567;52.540;6.434;2022-07-11T10:21:38;25.00;51.20
16901;DHT22;8567;52.540;6.434;2022-07-11T10:24:15;24.80;51.90
16901;DHT22;8567;52.540;6.434;2022-07-11T10:26:47;24.60;52.20
16901;DHT22;8567;52.540;6.434;2022-07-11T10:29:20;24.60;52.30
16901;DHT22;8567;52.540;6.434;2022-07-11T10:32:04;24.60;52.70
16901;DHT22;8567;52.540;6.434;2022-07-11T10:34:31;24.60;52.80
16901;DHT22;8567;52.540;6.434;2022-07-11T10:37:02;24.60;52.70
16901;DHT22;8567;52.540;6.434;2022-07-11T10:39:30;24.60;52.80
16901;DHT22;8567;52.540;6.434;2022-07-11T10:41:59;24.60;52.80
16901;DHT22;8567;52.540;6.434;2022-07-11T10:44:27;24.50;52.90
16901;DHT22;8567;52.540;6.434;2022-07-11T10:46:54;24.50;52.90
16901;DHT22;8567;52.540;6.434;2022-07-11T10:49:35;24.50;53.00
16901;DHT22;8567;52.540;6.434;2022-07-11T10:52:06;24.50;53.00
16901;DHT22;8567;52.540;6.434;2022-07-11T10:54:44;24.50;53.00
16901;DHT22;8567;52.540;6.434;2022-07-11T10:57:17;24.50;52.90
16901;DHT22;8567;52.540;6.434;2022-07-11T10:59:55;24.40;53.00
16901;DHT22;8567;52.540;6.434;2022-07-11T11:02:23;24.40;53.00
16901;DHT22;8567;52.540;6.434;2022-07-11T11:04:51;24.50;52.90
16901;DHT22;8567;52.540;6.434;2022-07-11T11:07:38;24.50;53.10
16901;DHT22;8567;52.540;6.434;2022-07-11T11:13:17;25.40;50.80
16901;DHT22;8567;52.540;6.434;2022-07-11T11:15:48;25.30;50.80
16901;DHT22;8567;52.540;6.434;2022-07-11T11:18:35;25.10;51.20
16901;DHT22;8567;52.540;6.434;2022-07-11T11:21:24;24.90;51.70
16901;DHT22;8567;52.540;6.434;2022-07-11T11:24:06;24.60;52.40
16901;DHT22;8567;52.540;6.434;2022-07-11T11:26:49;24.50;52.70
16901;DHT22;8567;52.540;6.434;2022-07-11T11:29:19;24.50;52.80
16901;DHT22;8567;52.540;6.434;2022-07-11T11:31:49;24.50;52.70
16901;DHT22;8567;52.540;6.434;2022-07-11T11:34:16;24.50;52.70
16901;DHT22;8567;52.540;6.434;2022-07-11T11:36:44;24.50;52.70
16901;DHT22;8567;52.540;6.434;2022-07-11T11:39:24;24.50;52.70
16901;DHT22;8567;52.540;6.434;2022-07-11T11:41:50;24.50;52.70
16901;DHT22;8567;52.540;6.434;2022-07-11T11:44:17;24.50;52.70
16901;DHT22;8567;52.540;6.434;2022-07-11T11:46:44;24.50;52.70
16901;DHT22;8567;52.540;6.434;2022-07-11T11:49:11;24.50;52.80
16901;DHT22;8567;52.540;6.434;2022-07-11T11:51:40;24.50;52.80
16901;DHT22;8567;52.540;6.434;2022-07-11T11:54:09;24.50;52.80
16901;DHT22;8567;52.540;6.434;2022-07-11T11:56:38;24.50;52.80
16901;DHT22;8567;52.540;6.434;2022-07-11T11:59:07;24.50;52.80
16901;DHT22;8567;52.540;6.434;2022-07-11T12:01:37;24.50;52.80
16901;DHT22;8567;52.540;6.434;2022-07-11T12:04:05;24.50;52.80
16901;DHT22;8567;52.540;6.434;2022-07-11T12:06:34;24.50;52.90
16901;DHT22;8567;52.540;6.434;2022-07-11T12:09:03;24.70;52.80
16901;DHT22;8567;52.540;6.434;2022-07-11T12:11:30;25.40;51.20
16901;DHT22;8567;52.540;6.434;2022-07-11T12:14:00;25.50;50.80
16901;DHT22;8567;52.540;6.434;2022-07-11T12:16:27;25.30;51.40
16901;DHT22;8567;52.540;6.434;2022-07-11T12:19:08;25.00;52.00
16901;DHT22;8567;52.540;6.434;2022-07-11T12:21:38;25.00;52.20
16901;DHT22;8567;52.540;6.434;2022-07-11T12:24:07;24.80;52.50
16901;DHT22;8567;52.540;6.434;2022-07-11T12:26:36;24.70;52.60
16901;DHT22;8567;52.540;6.434;2022-07-11T12:29:09;24.70;52.90
16901;DHT22;8567;52.540;6.434;2022-07-11T12:31:46;24.50;53.30
16901;DHT22;8567;52.540;6.434;2022-07-11T12:34:14;24.30;53.60
16901;DHT22;8567;52.540;6.434;2022-07-11T12:36:40;24.20;53.90
16901;DHT22;8567;52.540;6.434;2022-07-11T12:39:07;24.20;54.00
16901;DHT22;8567;52.540;6.434;2022-07-11T12:41:35;24.10;54.10
16901;DHT22;8567;52.540;6.434;2022-07-11T12:44:02;24.20;54.00
16901;DHT22;8567;52.540;6.434;2022-07-11T12:46:48;24.10;54.30
16901;DHT22;8567;52.540;6.434;2022-07-11T12:49:15;24.00;54.50
16901;DHT22;8567;52.540;6.434;2022-07-11T12:51:45;24.10;54.50
16901;DHT22;8567;52.540;6.434;2022-07-11T12:54:12;24.20;54.30
16901;DHT22;8567;52.540;6.434;2022-07-11T12:56:40;24.20;54.00
16901;DHT22;8567;52.540;6.434;2022-07-11T12:59:18;24.20;54.10
16901;DHT22;8567;52.540;6.434;2022-07-11T13:01:56;24.10;54.20
16901;DHT22;8567;52.540;6.434;2022-07-11T13:04:30;24.10;54.40
16901;DHT22;8567;52.540;6.434;2022-07-11T13:06:57;24.10;54.60
16901;DHT22;8567;52.540;6.434;2022-07-11T13:09:41;24.40;54.20
16901;DHT22;8567;52.540;6.434;2022-07-11T13:12:09;25.10;52.50
16901;DHT22;8567;52.540;6.434;2022-07-11T13:14:36;25.20;51.80
16901;DHT22;8567;52.540;6.434;2022-07-11T13:17:21;25.20;51.80
16901;DHT22;8567;52.540;6.434;2022-07-11T13:19:47;24.90;52.30
16901;DHT22;8567;52.540;6.434;2022-07-11T13:22:14;24.70;52.90
16901;DHT22;8567;52.540;6.434;2022-07-11T13:24:41;24.50;53.40
16901;DHT22;8567;52.540;6.434;2022-07-11T13:27:07;24.40;53.80
16901;DHT22;8567;52.540;6.434;2022-07-11T13:29:34;24.30;54.10
16901;DHT22;8567;52.540;6.434;2022-07-11T13:32:01;24.20;54.40
16901;DHT22;8567;52.540;6.434;2022-07-11T13:34:29;24.20;54.30
16901;DHT22;8567;52.540;6.434;2022-07-11T13:36:56;24.20;54.40
16901;DHT22;8567;52.540;6.434;2022-07-11T13:39:23;24.20;54.40
16901;DHT22;8567;52.540;6.434;2022-07-11T13:41:50;24.10;54.50
16901;DHT22;8567;52.540;6.434;2022-07-11T13:44:16;24.10;54.60
16901;DHT22;8567;52.540;6.434;2022-07-11T13:46:43;24.20;54.50
16901;DHT22;8567;52.540;6.434;2022-07-11T13:49:10;24.20;54.50
16901;DHT22;8567;52.540;6.434;2022-07-11T13:51:39;24.20;54.80
16901;DHT22;8567;52.540;6.434;2022-07-11T13:54:06;24.20;54.70
16901;DHT22;8567;52.540;6.434;2022-07-11T13:56:33;24.20;54.80
16901;DHT22;8567;52.540;6.434;2022-07-11T13:59:01;24.20;54.80
16901;DHT22;8567;52.540;6.434;2022-07-11T14:01:27;24.20;54.70
16901;DHT22;8567;52.540;6.434;2022-07-11T14:03:54;24.10;55.30
16901;DHT22;8567;52.540;6.434;2022-07-11T14:06:22;24.10;55.20
16901;DHT22;8567;52.540;6.434;2022-07-11T14:08:50;24.20;55.20
16901;DHT22;8567;52.540;6.434;2022-07-11T14:11:17;24.70;53.80
16901;DHT22;8567;52.540;6.434;2022-07-11T14:13:44;25.00;52.80
16901;DHT22;8567;52.540;6.434;2022-07-11T14:16:11;25.00;52.70
16901;DHT22;8567;52.540;6.434;2022-07-11T14:18:37;24.90;52.80
16901;DHT22;8567;52.540;6.434;2022-07-11T14:21:04;24.70;53.50
16901;DHT22;8567;52.540;6.434;2022-07-11T14:23:31;24.60;54.10
16901;DHT22;8567;52.540;6.434;2022-07-11T14:26:00;24.50;54.30
16901;DHT22;8567;52.540;6.434;2022-07-11T14:28:31;24.50;54.20
16901;DHT22;8567;52.540;6.434;2022-07-11T14:30:58;24.40;54.40
16901;DHT22;8567;52.540;6.434;2022-07-11T14:33:25;24.30;54.70
16901;DHT22;8567;52.540;6.434;2022-07-11T14:35:52;24.30;54.80
16901;DHT22;8567;52.540;6.434;2022-07-11T14:38:19;24.30;54.80
16901;DHT22;8567;52.540;6.434;2022-07-11T14:40:46;24.30;54.90
16901;DHT22;8567;52.540;6.434;2022-07-11T14:43:14;24.30;54.90
16901;DHT22;8567;52.540;6.434;2022-07-11T14:45:41;24.40;54.80
16901;DHT22;8567;52.540;6.434;2022-07-11T14:48:07;24.40;54.90
16901;DHT22;8567;52.540;6.434;2022-07-11T14:50:34;24.50;54.70
16901;DHT22;8567;52.540;6.434;2022-07-11T14:53:01;24.50;54.70
16901;DHT22;8567;52.540;6.434;2022-07-11T14:55:28;24.50;54.60
16901;DHT22;8567;52.540;6.434;2022-07-11T14:57:55;24.50;54.50
16901;DHT22;8567;52.540;6.434;2022-07-11T15:00:23;24.50;54.60
16901;DHT22;8567;52.540;6.434;2022-07-11T15:02:51;24.50;54.50
16901;DHT22;8567;52.540;6.434;2022-07-11T15:05:35;24.50;54.30
16901;DHT22;8567;52.540;6.434;2022-07-11T15:08:02;24.50;54.50
16901;DHT22;8567;52.540;6.434;2022-07-11T15:10:46;25.00;53.60
16901;DHT22;8567;52.540;6.434;2022-07-11T15:13:31;25.60;51.90
16901;DHT22;8567;52.540;6.434;2022-07-11T15:15:59;25.70;51.60
16901;DHT22;8567;52.540;6.434;2022-07-11T15:18:26;25.50;52.00
16901;DHT22;8567;52.540;6.434;2022-07-11T15:20:53;25.40;52.50
16901;DHT22;8567;52.540;6.434;2022-07-11T15:23:20;25.30;52.90
16901;DHT22;8567;52.540;6.434;2022-07-11T15:25:47;25.20;53.00
16901;DHT22;8567;52.540;6.434;2022-07-11T15:28:14;25.10;53.30
16901;DHT22;8567;52.540;6.434;2022-07-11T15:30:41;25.00;53.40
16901;DHT22;8567;52.540;6.434;2022-07-11T15:33:09;25.00;53.60
16901;DHT22;8567;52.540;6.434;2022-07-11T15:35:36;24.90;53.50
16901;DHT22;8567;52.540;6.434;2022-07-11T15:38:02;24.90;53.60
16901;DHT22;8567;52.540;6.434;2022-07-11T15:40:29;24.80;53.90
16901;DHT22;8567;52.540;6.434;2022-07-11T15:42:56;24.90;53.70
16901;DHT22;8567;52.540;6.434;2022-07-11T15:45:23;24.90;53.80
16901;DHT22;8567;52.540;6.434;2022-07-11T15:47:51;24.80;53.70
16901;DHT22;8567;52.540;6.434;2022-07-11T15:50:19;24.80;53.70
16901;DHT22;8567;52.540;6.434;2022-07-11T15:52:46;24.80;53.90
16901;DHT22;8567;52.540;6.434;2022-07-11T15:55:12;24.80;53.70
16901;DHT22;8567;52.540;6.434;2022-07-11T15:57:40;24.80;53.80